Offutt Lake, Washington
Current Conditions -  °F | °C
As of 3:54 PM on Monday 20 Oct 2014 (Local Time) from KOLM Reporting Station
Broken Clouds Broken Clouds  
Wind Chill: 62°   Ceiling: 7000
Heat Index: 62°   Visibility: 10mi
Dew Point: 54°   Wind: 7mph
Humidity: 75%   Direction: 170°S
Pressure: 29.76"   Gusts: NA
Location:  46.9755°N, 122.872°W
Report Text: KOLM 202254Z 17006KT 10SM SCT045 BKN070 BKN110 17/12 A2976 RMK AO2 SLP078 T01670122
Loading
Personal Weather Stations






























Interactive Weather Map
Tropical Storm Tracking
New forecast layout! Learn more

10-Day Weather Forecast

Advertisements
Track Severe Weather on mobile